sensor_id;sensor_type;location;lat;lon;timestamp;P1;durP1;ratioP1;P2;durP2;ratioP2
19107;SDS011;9686;48.832;9.126;2023-03-01T00:01:09;21.80;;;13.43;;
19107;SDS011;9686;48.832;9.126;2023-03-01T00:03:37;18.37;;;13.23;;
19107;SDS011;9686;48.832;9.126;2023-03-01T00:06:03;20.30;;;13.33;;
19107;SDS011;9686;48.832;9.126;2023-03-01T00:08:30;18.87;;;11.80;;
19107;SDS011;9686;48.832;9.126;2023-03-01T00:11:01;18.70;;;11.97;;
19107;SDS011;9686;48.832;9.126;2023-03-01T00:13:27;20.00;;;12.03;;
19107;SDS011;9686;48.832;9.126;2023-03-01T00:15:53;22.77;;;12.80;;
19107;SDS011;9686;48.832;9.126;2023-03-01T00:18:18;19.50;;;11.37;;
19107;SDS011;9686;48.832;9.126;2023-03-01T00:20:51;17.77;;;11.57;;
19107;SDS011;9686;48.832;9.126;2023-03-01T00:23:17;21.73;;;13.57;;
19107;SDS011;9686;48.832;9.126;2023-03-01T00:25:43;19.03;;;12.47;;
19107;SDS011;9686;48.832;9.126;2023-03-01T00:28:09;21.10;;;12.90;;
19107;SDS011;9686;48.832;9.126;2023-03-01T00:30:35;19.70;;;12.87;;
19107;SDS011;9686;48.832;9.126;2023-03-01T00:33:00;20.83;;;13.03;;
19107;SDS011;9686;48.832;9.126;2023-03-01T00:35:26;20.63;;;12.27;;
19107;SDS011;9686;48.832;9.126;2023-03-01T00:37:52;19.23;;;12.53;;
19107;SDS011;9686;48.832;9.126;2023-03-01T00:40:23;18.30;;;12.03;;
19107;SDS011;9686;48.832;9.126;2023-03-01T00:42:49;19.40;;;11.77;;
19107;SDS011;9686;48.832;9.126;2023-03-01T00:45:15;20.10;;;12.23;;
19107;SDS011;9686;48.832;9.126;2023-03-01T00:47:41;20.90;;;12.40;;
19107;SDS011;9686;48.832;9.126;2023-03-01T00:50:07;21.30;;;12.50;;
19107;SDS011;9686;48.832;9.126;2023-03-01T00:52:32;18.00;;;11.80;;
19107;SDS011;9686;48.832;9.126;2023-03-01T00:54:58;22.33;;;13.07;;
19107;SDS011;9686;48.832;9.126;2023-03-01T00:57:23;19.77;;;12.20;;
19107;SDS011;9686;48.832;9.126;2023-03-01T00:59:48;17.33;;;11.60;;
19107;SDS011;9686;48.832;9.126;2023-03-01T01:02:14;18.77;;;12.10;;
19107;SDS011;9686;48.832;9.126;2023-03-01T01:04:39;18.77;;;11.83;;
19107;SDS011;9686;48.832;9.126;2023-03-01T01:07:05;19.00;;;12.20;;
19107;SDS011;9686;48.832;9.126;2023-03-01T01:09:30;19.67;;;10.90;;
19107;SDS011;9686;48.832;9.126;2023-03-01T01:11:56;19.23;;;12.83;;
19107;SDS011;9686;48.832;9.126;2023-03-01T01:14:21;20.03;;;11.47;;
19107;SDS011;9686;48.832;9.126;2023-03-01T01:16:46;17.70;;;11.10;;
19107;SDS011;9686;48.832;9.126;2023-03-01T01:19:12;19.30;;;12.00;;
19107;SDS011;9686;48.832;9.126;2023-03-01T01:21:38;16.53;;;12.30;;
19107;SDS011;9686;48.832;9.126;2023-03-01T01:24:03;17.50;;;11.77;;
19107;SDS011;9686;48.832;9.126;2023-03-01T01:26:31;21.80;;;11.93;;
19107;SDS011;9686;48.832;9.126;2023-03-01T01:28:58;16.87;;;12.03;;
19107;SDS011;9686;48.832;9.126;2023-03-01T01:31:24;19.67;;;11.90;;
19107;SDS011;9686;48.832;9.126;2023-03-01T01:33:51;18.93;;;11.67;;
19107;SDS011;9686;48.832;9.126;2023-03-01T01:36:18;19.13;;;11.83;;
19107;SDS011;9686;48.832;9.126;2023-03-01T01:38:43;16.23;;;11.70;;
19107;SDS011;9686;48.832;9.126;2023-03-01T01:41:12;19.10;;;10.90;;
19107;SDS011;9686;48.832;9.126;2023-03-01T01:43:42;18.60;;;11.60;;
19107;SDS011;9686;48.832;9.126;2023-03-01T01:46:30;17.27;;;11.07;;
19107;SDS011;9686;48.832;9.126;2023-03-01T01:49:22;15.97;;;10.77;;
19107;SDS011;9686;48.832;9.126;2023-03-01T01:52:04;18.93;;;11.60;;
19107;SDS011;9686;48.832;9.126;2023-03-01T01:54:38;15.87;;;11.00;;
19107;SDS011;9686;48.832;9.126;2023-03-01T01:57:06;18.63;;;11.67;;
19107;SDS011;9686;48.832;9.126;2023-03-01T01:59:37;19.90;;;11.13;;
19107;SDS011;9686;48.832;9.126;2023-03-01T02:02:04;19.70;;;11.90;;
19107;SDS011;9686;48.832;9.126;2023-03-01T02:04:31;18.93;;;11.37;;
19107;SDS011;9686;48.832;9.126;2023-03-01T02:06:59;15.83;;;10.33;;
19107;SDS011;9686;48.832;9.126;2023-03-01T02:09:29;17.77;;;11.37;;
19107;SDS011;9686;48.832;9.126;2023-03-01T02:12:03;16.63;;;11.10;;
19107;SDS011;9686;48.832;9.126;2023-03-01T02:14:29;16.93;;;10.63;;
19107;SDS011;9686;48.832;9.126;2023-03-01T02:16:55;18.37;;;11.67;;
19107;SDS011;9686;48.832;9.126;2023-03-01T02:22:32;21.37;;;11.37;;
19107;SDS011;9686;48.832;9.126;2023-03-01T02:27:42;23.00;;;11.93;;
19107;SDS011;9686;48.832;9.126;2023-03-01T02:30:28;18.37;;;11.03;;
19107;SDS011;9686;48.832;9.126;2023-03-01T02:32:54;17.50;;;11.77;;
19107;SDS011;9686;48.832;9.126;2023-03-01T02:35:27;17.27;;;10.93;;
19107;SDS011;9686;48.832;9.126;2023-03-01T02:37:56;22.97;;;12.03;;
19107;SDS011;9686;48.832;9.126;2023-03-01T02:40:28;16.67;;;10.67;;
19107;SDS011;9686;48.832;9.126;2023-03-01T02:42:56;19.40;;;10.97;;
19107;SDS011;9686;48.832;9.126;2023-03-01T02:45:24;21.87;;;12.10;;
19107;SDS011;9686;48.832;9.126;2023-03-01T02:47:53;17.57;;;10.80;;
19107;SDS011;9686;48.832;9.126;2023-03-01T02:55:23;22.77;;;11.40;;
19107;SDS011;9686;48.832;9.126;2023-03-01T02:57:49;18.63;;;11.13;;
19107;SDS011;9686;48.832;9.126;2023-03-01T03:00:19;16.10;;;11.30;;
19107;SDS011;9686;48.832;9.126;2023-03-01T03:02:52;19.27;;;10.63;;
19107;SDS011;9686;48.832;9.126;2023-03-01T03:05:20;20.97;;;11.77;;
19107;SDS011;9686;48.832;9.126;2023-03-01T03:07:48;17.83;;;10.70;;
19107;SDS011;9686;48.832;9.126;2023-03-01T03:10:15;19.67;;;11.57;;
19107;SDS011;9686;48.832;9.126;2023-03-01T03:12:56;19.27;;;10.70;;
19107;SDS011;9686;48.832;9.126;2023-03-01T03:15:24;16.07;;;11.33;;
19107;SDS011;9686;48.832;9.126;2023-03-01T03:17:50;16.03;;;10.87;;
19107;SDS011;9686;48.832;9.126;2023-03-01T03:20:18;18.53;;;10.60;;
19107;SDS011;9686;48.832;9.126;2023-03-01T03:22:47;19.63;;;11.33;;
19107;SDS011;9686;48.832;9.126;2023-03-01T03:25:15;21.13;;;10.87;;
19107;SDS011;9686;48.832;9.126;2023-03-01T03:27:42;16.17;;;10.73;;
19107;SDS011;9686;48.832;9.126;2023-03-01T03:30:13;17.07;;;10.47;;
19107;SDS011;9686;48.832;9.126;2023-03-01T03:32:41;16.57;;;11.03;;
19107;SDS011;9686;48.832;9.126;2023-03-01T03:35:16;17.23;;;10.80;;
19107;SDS011;9686;48.832;9.126;2023-03-01T03:37:42;20.17;;;11.40;;
19107;SDS011;9686;48.832;9.126;2023-03-01T03:40:26;19.20;;;11.07;;
19107;SDS011;9686;48.832;9.126;2023-03-01T03:42:54;17.13;;;11.17;;
19107;SDS011;9686;48.832;9.126;2023-03-01T03:45:20;19.20;;;10.90;;
19107;SDS011;9686;48.832;9.126;2023-03-01T03:47:46;18.80;;;11.17;;
19107;SDS011;9686;48.832;9.126;2023-03-01T03:50:15;15.70;;;9.80;;
19107;SDS011;9686;48.832;9.126;2023-03-01T03:52:42;15.53;;;10.37;;
19107;SDS011;9686;48.832;9.126;2023-03-01T03:55:08;22.27;;;11.43;;
19107;SDS011;9686;48.832;9.126;2023-03-01T03:57:35;19.10;;;11.13;;
19107;SDS011;9686;48.832;9.126;2023-03-01T04:00:16;17.97;;;11.07;;
19107;SDS011;9686;48.832;9.126;2023-03-01T04:02:44;15.93;;;10.73;;
19107;SDS011;9686;48.832;9.126;2023-03-01T04:05:11;15.27;;;10.57;;
19107;SDS011;9686;48.832;9.126;2023-03-01T04:07:41;15.77;;;11.20;;
19107;SDS011;9686;48.832;9.126;2023-03-01T04:10:08;16.33;;;11.47;;
19107;SDS011;9686;48.832;9.126;2023-03-01T04:12:36;16.13;;;10.70;;
19107;SDS011;9686;48.832;9.126;2023-03-01T04:15:05;15.63;;;11.13;;
19107;SDS011;9686;48.832;9.126;2023-03-01T04:17:45;16.77;;;10.90;;
19107;SDS011;9686;48.832;9.126;2023-03-01T04:20:13;17.60;;;11.10;;
19107;SDS011;9686;48.832;9.126;2023-03-01T04:22:42;17.40;;;11.07;;
19107;SDS011;9686;48.832;9.126;2023-03-01T05:24:56;21.17;;;13.50;;
19107;SDS011;9686;48.832;9.126;2023-03-01T05:30:50;21.90;;;13.23;;
19107;SDS011;9686;48.832;9.126;2023-03-01T05:36:50;19.77;;;12.77;;
19107;SDS011;9686;48.832;9.126;2023-03-01T05:40:18;19.43;;;12.00;;
19107;SDS011;9686;48.832;9.126;2023-03-01T05:47:05;19.23;;;12.97;;
19107;SDS011;9686;48.832;9.126;2023-03-01T05:53:05;19.17;;;12.17;;
19107;SDS011;9686;48.832;9.126;2023-03-01T06:55:27;21.43;;;13.27;;
19107;SDS011;9686;48.832;9.126;2023-03-01T06:58:06;18.27;;;12.63;;
19107;SDS011;9686;48.832;9.126;2023-03-01T07:01:18;20.73;;;13.60;;
19107;SDS011;9686;48.832;9.126;2023-03-01T07:32:35;19.30;;;13.37;;
19107;SDS011;9686;48.832;9.126;2023-03-01T07:37:48;21.23;;;13.70;;
19107;SDS011;9686;48.832;9.126;2023-03-01T07:40:27;25.33;;;14.20;;
19107;SDS011;9686;48.832;9.126;2023-03-01T07:43:08;21.53;;;14.00;;
19107;SDS011;9686;48.832;9.126;2023-03-01T08:19:32;19.83;;;13.50;;
19107;SDS011;9686;48.832;9.126;2023-03-01T10:26:47;25.53;;;14.70;;
19107;SDS011;9686;48.832;9.126;2023-03-01T10:30:10;20.27;;;13.93;;
19107;SDS011;9686;48.832;9.126;2023-03-01T10:32:51;23.10;;;14.90;;
19107;SDS011;9686;48.832;9.126;2023-03-01T10:35:20;21.47;;;13.10;;
19107;SDS011;9686;48.832;9.126;2023-03-01T10:40:50;20.53;;;14.10;;
19107;SDS011;9686;48.832;9.126;2023-03-01T10:43:20;20.17;;;13.43;;
19107;SDS011;9686;48.832;9.126;2023-03-01T10:45:50;18.83;;;13.43;;
19107;SDS011;9686;48.832;9.126;2023-03-01T10:48:21;22.53;;;14.57;;
19107;SDS011;9686;48.832;9.126;2023-03-01T10:53:27;17.90;;;13.63;;
19107;SDS011;9686;48.832;9.126;2023-03-01T10:56:03;20.07;;;14.00;;
19107;SDS011;9686;48.832;9.126;2023-03-01T10:59:00;23.33;;;14.97;;
19107;SDS011;9686;48.832;9.126;2023-03-01T11:01:31;19.87;;;14.43;;
19107;SDS011;9686;48.832;9.126;2023-03-01T11:06:41;21.77;;;12.90;;
19107;SDS011;9686;48.832;9.126;2023-03-01T11:09:21;19.57;;;13.40;;
19107;SDS011;9686;48.832;9.126;2023-03-01T11:11:55;18.80;;;13.27;;
19107;SDS011;9686;48.832;9.126;2023-03-01T11:14:25;21.03;;;13.80;;
19107;SDS011;9686;48.832;9.126;2023-03-01T11:17:02;19.00;;;12.60;;
19107;SDS011;9686;48.832;9.126;2023-03-01T11:19:38;16.73;;;12.93;;
19107;SDS011;9686;48.832;9.126;2023-03-01T11:22:11;21.53;;;13.50;;
19107;SDS011;9686;48.832;9.126;2023-03-01T11:24:43;17.60;;;12.27;;
19107;SDS011;9686;48.832;9.126;2023-03-01T11:27:33;22.23;;;13.53;;
19107;SDS011;9686;48.832;9.126;2023-03-01T11:30:05;19.97;;;13.27;;
19107;SDS011;9686;48.832;9.126;2023-03-01T11:32:50;18.37;;;11.97;;
19107;SDS011;9686;48.832;9.126;2023-03-01T11:35:24;17.47;;;12.70;;
19107;SDS011;9686;48.832;9.126;2023-03-01T11:40:57;16.03;;;12.67;;
19107;SDS011;9686;48.832;9.126;2023-03-01T11:43:43;17.67;;;12.03;;
19107;SDS011;9686;48.832;9.126;2023-03-01T11:57:52;15.57;;;12.07;;
19107;SDS011;9686;48.832;9.126;2023-03-01T12:12:01;15.47;;;11.97;;
19107;SDS011;9686;48.832;9.126;2023-03-01T12:20:15;17.40;;;13.50;;
19107;SDS011;9686;48.832;9.126;2023-03-01T12:36:48;16.03;;;12.53;;
19107;SDS011;9686;48.832;9.126;2023-03-01T12:51:01;18.90;;;12.97;;
19107;SDS011;9686;48.832;9.126;2023-03-01T12:53:27;18.47;;;13.80;;
19107;SDS011;9686;48.832;9.126;2023-03-01T12:55:58;16.60;;;13.40;;
19107;SDS011;9686;48.832;9.126;2023-03-01T12:58:32;17.53;;;13.57;;
19107;SDS011;9686;48.832;9.126;2023-03-01T13:01:05;17.33;;;12.43;;
19107;SDS011;9686;48.832;9.126;2023-03-01T13:09:43;18.63;;;12.43;;
19107;SDS011;9686;48.832;9.126;2023-03-01T13:15:32;18.37;;;12.43;;
19107;SDS011;9686;48.832;9.126;2023-03-01T13:32:03;19.00;;;12.77;;
19107;SDS011;9686;48.832;9.126;2023-03-01T13:34:09;16.83;;;12.13;;
19107;SDS011;9686;48.832;9.126;2023-03-01T13:37:20;18.70;;;13.30;;
19107;SDS011;9686;48.832;9.126;2023-03-01T13:39:47;16.60;;;12.60;;
19107;SDS011;9686;48.832;9.126;2023-03-01T13:42:31;21.43;;;14.03;;
19107;SDS011;9686;48.832;9.126;2023-03-01T13:44:59;18.90;;;12.07;;
19107;SDS011;9686;48.832;9.126;2023-03-01T13:47:25;15.53;;;12.60;;
19107;SDS011;9686;48.832;9.126;2023-03-01T13:50:02;19.53;;;13.03;;
19107;SDS011;9686;48.832;9.126;2023-03-01T13:52:32;19.63;;;13.40;;
19107;SDS011;9686;48.832;9.126;2023-03-01T13:54:58;18.47;;;13.40;;
19107;SDS011;9686;48.832;9.126;2023-03-01T13:57:28;16.33;;;12.77;;
19107;SDS011;9686;48.832;9.126;2023-03-01T13:59:58;17.20;;;12.83;;
19107;SDS011;9686;48.832;9.126;2023-03-01T14:02:24;16.30;;;12.40;;
19107;SDS011;9686;48.832;9.126;2023-03-01T14:04:56;18.27;;;13.37;;
19107;SDS011;9686;48.832;9.126;2023-03-01T14:07:24;16.50;;;11.43;;
19107;SDS011;9686;48.832;9.126;2023-03-01T14:09:54;15.57;;;12.50;;
19107;SDS011;9686;48.832;9.126;2023-03-01T14:12:35;21.90;;;12.87;;
19107;SDS011;9686;48.832;9.126;2023-03-01T14:15:18;22.07;;;13.43;;
19107;SDS011;9686;48.832;9.126;2023-03-01T14:17:59;19.93;;;13.83;;
19107;SDS011;9686;48.832;9.126;2023-03-01T14:20:37;19.27;;;13.43;;
19107;SDS011;9686;48.832;9.126;2023-03-01T14:23:09;17.93;;;13.60;;
19107;SDS011;9686;48.832;9.126;2023-03-01T14:25:37;20.80;;;13.73;;
19107;SDS011;9686;48.832;9.126;2023-03-01T14:30:34;19.00;;;13.53;;
19107;SDS011;9686;48.832;9.126;2023-03-01T14:33:05;21.77;;;13.63;;
19107;SDS011;9686;48.832;9.126;2023-03-01T14:35:51;17.67;;;13.50;;
19107;SDS011;9686;48.832;9.126;2023-03-01T14:38:21;17.73;;;13.33;;
19107;SDS011;9686;48.832;9.126;2023-03-01T14:40:50;18.27;;;12.80;;
19107;SDS011;9686;48.832;9.126;2023-03-01T14:43:23;20.13;;;13.90;;
19107;SDS011;9686;48.832;9.126;2023-03-01T14:45:50;20.67;;;14.47;;
19107;SDS011;9686;48.832;9.126;2023-03-01T14:48:20;18.20;;;13.40;;
19107;SDS011;9686;48.832;9.126;2023-03-01T14:50:46;17.33;;;12.90;;
19107;SDS011;9686;48.832;9.126;2023-03-01T14:53:23;16.60;;;12.73;;
19107;SDS011;9686;48.832;9.126;2023-03-01T14:55:52;16.50;;;12.80;;
19107;SDS011;9686;48.832;9.126;2023-03-01T14:58:20;17.97;;;13.63;;
19107;SDS011;9686;48.832;9.126;2023-03-01T15:00:59;19.87;;;14.10;;
19107;SDS011;9686;48.832;9.126;2023-03-01T15:06:50;16.43;;;13.57;;
19107;SDS011;9686;48.832;9.126;2023-03-01T15:09:35;18.00;;;14.07;;
19107;SDS011;9686;48.832;9.126;2023-03-01T15:14:54;16.90;;;13.10;;
19107;SDS011;9686;48.832;9.126;2023-03-01T15:19:57;19.13;;;14.33;;
19107;SDS011;9686;48.832;9.126;2023-03-01T15:22:25;23.50;;;14.57;;
19107;SDS011;9686;48.832;9.126;2023-03-01T15:24:51;18.90;;;13.90;;
19107;SDS011;9686;48.832;9.126;2023-03-01T15:27:19;20.30;;;14.17;;
19107;SDS011;9686;48.832;9.126;2023-03-01T15:29:53;17.97;;;13.60;;
19107;SDS011;9686;48.832;9.126;2023-03-01T15:32:28;20.37;;;13.60;;
19107;SDS011;9686;48.832;9.126;2023-03-01T15:35:00;17.37;;;12.37;;
19107;SDS011;9686;48.832;9.126;2023-03-01T15:38:00;17.40;;;13.47;;
19107;SDS011;9686;48.832;9.126;2023-03-01T15:40:56;17.47;;;13.10;;
19107;SDS011;9686;48.832;9.126;2023-03-01T15:46:44;20.00;;;13.53;;
19107;SDS011;9686;48.832;9.126;2023-03-01T15:49:19;18.07;;;12.43;;
19107;SDS011;9686;48.832;9.126;2023-03-01T15:51:52;19.70;;;13.00;;
19107;SDS011;9686;48.832;9.126;2023-03-01T15:54:24;16.20;;;13.10;;
19107;SDS011;9686;48.832;9.126;2023-03-01T15:56:51;19.70;;;13.50;;
19107;SDS011;9686;48.832;9.126;2023-03-01T15:59:25;21.73;;;13.93;;
19107;SDS011;9686;48.832;9.126;2023-03-01T16:01:50;18.27;;;13.53;;
19107;SDS011;9686;48.832;9.126;2023-03-01T16:04:17;17.60;;;12.97;;
19107;SDS011;9686;48.832;9.126;2023-03-01T16:07:08;16.07;;;12.70;;
19107;SDS011;9686;48.832;9.126;2023-03-01T16:09:34;17.87;;;13.20;;
19107;SDS011;9686;48.832;9.126;2023-03-01T16:12:00;18.87;;;12.50;;
19107;SDS011;9686;48.832;9.126;2023-03-01T16:14:26;20.63;;;12.77;;
19107;SDS011;9686;48.832;9.126;2023-03-01T16:16:52;15.90;;;12.23;;
19107;SDS011;9686;48.832;9.126;2023-03-01T16:19:19;15.57;;;12.40;;
19107;SDS011;9686;48.832;9.126;2023-03-01T16:24:54;17.27;;;12.53;;
19107;SDS011;9686;48.832;9.126;2023-03-01T16:45:56;18.13;;;11.80;;
19107;SDS011;9686;48.832;9.126;2023-03-01T17:18:24;20.43;;;10.90;;
19107;SDS011;9686;48.832;9.126;2023-03-01T19:13:47;22.23;;;13.87;;
19107;SDS011;9686;48.832;9.126;2023-03-01T19:16:17;20.70;;;13.13;;
19107;SDS011;9686;48.832;9.126;2023-03-01T19:18:46;20.70;;;13.00;;
19107;SDS011;9686;48.832;9.126;2023-03-01T19:21:36;19.17;;;13.13;;
19107;SDS011;9686;48.832;9.126;2023-03-01T19:24:05;22.17;;;13.17;;
19107;SDS011;9686;48.832;9.126;2023-03-01T19:26:31;18.60;;;12.97;;
19107;SDS011;9686;48.832;9.126;2023-03-01T19:29:00;21.43;;;13.13;;
19107;SDS011;9686;48.832;9.126;2023-03-01T19:31:43;22.03;;;14.07;;
19107;SDS011;9686;48.832;9.126;2023-03-01T19:35:05;18.47;;;12.57;;
19107;SDS011;9686;48.832;9.126;2023-03-01T19:37:32;22.13;;;13.47;;
19107;SDS011;9686;48.832;9.126;2023-03-01T19:43:05;18.73;;;12.80;;
19107;SDS011;9686;48.832;9.126;2023-03-01T19:45:31;17.37;;;11.87;;
19107;SDS011;9686;48.832;9.126;2023-03-01T19:50:54;19.43;;;12.47;;
19107;SDS011;9686;48.832;9.126;2023-03-01T19:53:26;20.17;;;12.43;;
19107;SDS011;9686;48.832;9.126;2023-03-01T19:55:55;17.83;;;12.33;;
19107;SDS011;9686;48.832;9.126;2023-03-01T19:58:22;18.50;;;12.70;;
19107;SDS011;9686;48.832;9.126;2023-03-01T20:03:56;21.27;;;12.03;;
19107;SDS011;9686;48.832;9.126;2023-03-01T20:06:22;23.03;;;13.80;;
19107;SDS011;9686;48.832;9.126;2023-03-01T20:08:49;21.10;;;13.70;;
19107;SDS011;9686;48.832;9.126;2023-03-01T20:11:15;24.30;;;14.17;;
19107;SDS011;9686;48.832;9.126;2023-03-01T20:13:48;21.53;;;13.97;;
19107;SDS011;9686;48.832;9.126;2023-03-01T20:16:17;20.33;;;13.93;;
19107;SDS011;9686;48.832;9.126;2023-03-01T20:18:44;19.40;;;13.50;;
19107;SDS011;9686;48.832;9.126;2023-03-01T20:21:24;22.13;;;12.77;;
19107;SDS011;9686;48.832;9.126;2023-03-01T20:23:51;20.80;;;13.33;;
19107;SDS011;9686;48.832;9.126;2023-03-01T20:26:33;20.43;;;12.77;;
19107;SDS011;9686;48.832;9.126;2023-03-01T20:32:36;25.60;;;15.40;;
19107;SDS011;9686;48.832;9.126;2023-03-01T20:35:01;26.60;;;16.73;;
19107;SDS011;9686;48.832;9.126;2023-03-01T20:37:27;28.50;;;16.07;;
19107;SDS011;9686;48.832;9.126;2023-03-01T20:39:53;26.97;;;16.57;;
19107;SDS011;9686;48.832;9.126;2023-03-01T20:42:19;28.03;;;16.30;;
19107;SDS011;9686;48.832;9.126;2023-03-01T20:44:44;30.97;;;16.67;;
19107;SDS011;9686;48.832;9.126;2023-03-01T20:47:10;30.30;;;17.00;;
19107;SDS011;9686;48.832;9.126;2023-03-01T20:49:35;24.50;;;16.23;;
19107;SDS011;9686;48.832;9.126;2023-03-01T20:52:01;27.43;;;16.93;;
19107;SDS011;9686;48.832;9.126;2023-03-01T20:54:26;23.93;;;15.47;;
19107;SDS011;9686;48.832;9.126;2023-03-01T20:56:52;24.97;;;16.33;;
19107;SDS011;9686;48.832;9.126;2023-03-01T20:59:18;26.53;;;16.37;;
19107;SDS011;9686;48.832;9.126;2023-03-01T21:01:43;28.83;;;16.03;;
19107;SDS011;9686;48.832;9.126;2023-03-01T21:04:09;26.13;;;16.07;;
19107;SDS011;9686;48.832;9.126;2023-03-01T21:06:34;27.47;;;15.90;;
19107;SDS011;9686;48.832;9.126;2023-03-01T21:09:00;23.57;;;15.90;;
19107;SDS011;9686;48.832;9.126;2023-03-01T21:11:25;26.17;;;16.27;;
19107;SDS011;9686;48.832;9.126;2023-03-01T21:13:52;29.90;;;16.27;;
19107;SDS011;9686;48.832;9.126;2023-03-01T21:16:18;23.80;;;16.00;;
19107;SDS011;9686;48.832;9.126;2023-03-01T21:18:45;27.50;;;16.20;;
19107;SDS011;9686;48.832;9.126;2023-03-01T21:21:11;23.37;;;14.73;;
19107;SDS011;9686;48.832;9.126;2023-03-01T21:23:39;19.80;;;13.57;;
19107;SDS011;9686;48.832;9.126;2023-03-01T21:26:10;24.40;;;14.60;;
19107;SDS011;9686;48.832;9.126;2023-03-01T21:28:45;26.77;;;15.70;;
19107;SDS011;9686;48.832;9.126;2023-03-01T21:31:13;30.57;;;17.03;;
19107;SDS011;9686;48.832;9.126;2023-03-01T21:33:42;26.83;;;16.97;;
19107;SDS011;9686;48.832;9.126;2023-03-01T21:36:10;29.30;;;16.97;;
19107;SDS011;9686;48.832;9.126;2023-03-01T21:38:37;26.53;;;16.57;;
19107;SDS011;9686;48.832;9.126;2023-03-01T21:41:06;30.63;;;17.67;;
19107;SDS011;9686;48.832;9.126;2023-03-01T21:43:36;30.67;;;17.23;;
19107;SDS011;9686;48.832;9.126;2023-03-01T21:46:03;26.63;;;16.63;;
19107;SDS011;9686;48.832;9.126;2023-03-01T21:48:31;29.60;;;17.50;;
19107;SDS011;9686;48.832;9.126;2023-03-01T21:50:58;27.53;;;16.40;;
19107;SDS011;9686;48.832;9.126;2023-03-01T21:53:26;27.67;;;15.83;;
19107;SDS011;9686;48.832;9.126;2023-03-01T21:55:55;26.10;;;15.47;;
19107;SDS011;9686;48.832;9.126;2023-03-01T21:58:20;27.03;;;15.60;;
19107;SDS011;9686;48.832;9.126;2023-03-01T22:00:46;29.80;;;16.43;;
19107;SDS011;9686;48.832;9.126;2023-03-01T22:03:12;27.23;;;16.80;;
19107;SDS011;9686;48.832;9.126;2023-03-01T22:05:38;25.27;;;15.93;;
19107;SDS011;9686;48.832;9.126;2023-03-01T22:08:04;30.17;;;16.83;;
19107;SDS011;9686;48.832;9.126;2023-03-01T22:10:30;29.33;;;17.90;;
19107;SDS011;9686;48.832;9.126;2023-03-01T22:12:56;29.13;;;19.43;;
19107;SDS011;9686;48.832;9.126;2023-03-01T22:15:23;34.47;;;20.07;;
19107;SDS011;9686;48.832;9.126;2023-03-01T22:17:58;32.80;;;19.40;;
19107;SDS011;9686;48.832;9.126;2023-03-01T22:20:25;27.80;;;18.20;;
19107;SDS011;9686;48.832;9.126;2023-03-01T22:22:50;33.53;;;19.37;;
19107;SDS011;9686;48.832;9.126;2023-03-01T22:25:16;28.30;;;18.83;;
19107;SDS011;9686;48.832;9.126;2023-03-01T22:27:41;30.83;;;18.30;;
19107;SDS011;9686;48.832;9.126;2023-03-01T22:30:07;28.77;;;17.87;;
19107;SDS011;9686;48.832;9.126;2023-03-01T22:32:35;30.73;;;19.07;;
19107;SDS011;9686;48.832;9.126;2023-03-01T22:35:00;27.10;;;17.87;;
19107;SDS011;9686;48.832;9.126;2023-03-01T22:37:26;25.27;;;17.77;;
19107;SDS011;9686;48.832;9.126;2023-03-01T22:39:51;26.93;;;16.33;;
19107;SDS011;9686;48.832;9.126;2023-03-01T22:42:17;30.93;;;18.10;;
19107;SDS011;9686;48.832;9.126;2023-03-01T22:44:43;29.57;;;16.87;;
19107;SDS011;9686;48.832;9.126;2023-03-01T22:47:08;31.37;;;18.13;;
19107;SDS011;9686;48.832;9.126;2023-03-01T22:49:34;30.13;;;18.23;;
19107;SDS011;9686;48.832;9.126;2023-03-01T22:51:59;29.40;;;17.63;;
19107;SDS011;9686;48.832;9.126;2023-03-01T22:54:25;25.80;;;16.93;;
19107;SDS011;9686;48.832;9.126;2023-03-01T22:56:50;26.03;;;17.23;;
19107;SDS011;9686;48.832;9.126;2023-03-01T22:59:16;28.33;;;17.47;;
19107;SDS011;9686;48.832;9.126;2023-03-01T23:01:46;32.30;;;17.53;;
19107;SDS011;9686;48.832;9.126;2023-03-01T23:04:13;26.73;;;16.90;;
19107;SDS011;9686;48.832;9.126;2023-03-01T23:06:38;31.13;;;18.63;;
19107;SDS011;9686;48.832;9.126;2023-03-01T23:09:14;27.80;;;16.60;;
19107;SDS011;9686;48.832;9.126;2023-03-01T23:11:41;30.07;;;17.70;;
19107;SDS011;9686;48.832;9.126;2023-03-01T23:14:07;29.30;;;16.93;;
19107;SDS011;9686;48.832;9.126;2023-03-01T23:16:32;30.83;;;17.37;;
19107;SDS011;9686;48.832;9.126;2023-03-01T23:18:57;31.07;;;16.77;;
19107;SDS011;9686;48.832;9.126;2023-03-01T23:21:23;28.57;;;16.47;;
19107;SDS011;9686;48.832;9.126;2023-03-01T23:23:49;29.57;;;16.27;;
19107;SDS011;9686;48.832;9.126;2023-03-01T23:26:15;28.77;;;16.73;;
19107;SDS011;9686;48.832;9.126;2023-03-01T23:28:42;28.13;;;17.77;;
19107;SDS011;9686;48.832;9.126;2023-03-01T23:31:09;25.97;;;16.90;;
19107;SDS011;9686;48.832;9.126;2023-03-01T23:33:37;30.03;;;16.63;;
19107;SDS011;9686;48.832;9.126;2023-03-01T23:36:12;29.57;;;17.63;;
19107;SDS011;9686;48.832;9.126;2023-03-01T23:38:46;30.67;;;17.03;;
19107;SDS011;9686;48.832;9.126;2023-03-01T23:41:13;29.60;;;17.93;;
19107;SDS011;9686;48.832;9.126;2023-03-01T23:43:42;30.37;;;17.23;;
19107;SDS011;9686;48.832;9.126;2023-03-01T23:46:08;26.73;;;16.23;;
19107;SDS011;9686;48.832;9.126;2023-03-01T23:48:38;30.80;;;16.57;;
19107;SDS011;9686;48.832;9.126;2023-03-01T23:51:04;28.33;;;16.60;;
19107;SDS011;9686;48.832;9.126;2023-03-01T23:53:29;30.13;;;17.30;;
19107;SDS011;9686;48.832;9.126;2023-03-01T23:55:55;31.80;;;16.93;;
19107;SDS011;9686;48.832;9.126;2023-03-01T23:58:20;29.90;;;17.10;;
